sensor_id;sensor_type;location;lat;lon;timestamp;P1;durP1;ratioP1;P2;durP2;ratioP2
58637;SDS011;54976;51.510;7.522;2023-01-19T00:02:03;11.95;;;7.82;;
58637;SDS011;54976;51.510;7.522;2023-01-19T00:05:04;14.75;;;8.88;;
58637;SDS011;54976;51.510;7.522;2023-01-19T00:08:05;14.88;;;8.35;;
58637;SDS011;54976;51.510;7.522;2023-01-19T00:11:13;15.68;;;7.65;;
58637;SDS011;54976;51.510;7.522;2023-01-19T00:14:16;15.43;;;8.82;;
58637;SDS011;54976;51.510;7.522;2023-01-19T00:17:16;13.70;;;7.38;;
58637;SDS011;54976;51.510;7.522;2023-01-19T00:20:17;19.42;;;9.18;;
58637;SDS011;54976;51.510;7.522;2023-01-19T00:23:18;14.50;;;8.48;;
58637;SDS011;54976;51.510;7.522;2023-01-19T00:26:19;14.75;;;8.05;;
58637;SDS011;54976;51.510;7.522;2023-01-19T00:29:21;14.50;;;8.52;;
58637;SDS011;54976;51.510;7.522;2023-01-19T00:32:21;14.57;;;8.05;;
58637;SDS011;54976;51.510;7.522;2023-01-19T00:35:22;13.85;;;8.38;;
58637;SDS011;54976;51.510;7.522;2023-01-19T00:38:22;13.35;;;8.07;;
58637;SDS011;54976;51.510;7.522;2023-01-19T00:41:23;12.73;;;8.20;;
58637;SDS011;54976;51.510;7.522;2023-01-19T00:44:47;12.88;;;8.57;;
58637;SDS011;54976;51.510;7.522;2023-01-19T00:50:55;12.45;;;7.80;;
58637;SDS011;54976;51.510;7.522;2023-01-19T00:53:57;17.35;;;9.23;;
58637;SDS011;54976;51.510;7.522;2023-01-19T00:57:03;10.80;;;6.72;;
58637;SDS011;54976;51.510;7.522;2023-01-19T01:00:05;14.80;;;8.82;;
58637;SDS011;54976;51.510;7.522;2023-01-19T01:03:08;13.63;;;8.25;;
58637;SDS011;54976;51.510;7.522;2023-01-19T01:06:09;13.48;;;7.38;;
58637;SDS011;54976;51.510;7.522;2023-01-19T01:09:09;12.00;;;7.90;;
58637;SDS011;54976;51.510;7.522;2023-01-19T01:12:13;18.40;;;8.70;;
58637;SDS011;54976;51.510;7.522;2023-01-19T01:15:14;15.10;;;8.07;;
58637;SDS011;54976;51.510;7.522;2023-01-19T01:18:15;13.93;;;8.52;;
58637;SDS011;54976;51.510;7.522;2023-01-19T01:21:16;15.43;;;8.88;;
58637;SDS011;54976;51.510;7.522;2023-01-19T01:24:16;13.73;;;5.82;;
58637;SDS011;54976;51.510;7.522;2023-01-19T01:27:17;12.98;;;7.00;;
58637;SDS011;54976;51.510;7.522;2023-01-19T01:30:18;12.85;;;8.68;;
58637;SDS011;54976;51.510;7.522;2023-01-19T01:33:19;16.45;;;8.38;;
58637;SDS011;54976;51.510;7.522;2023-01-19T01:36:20;14.48;;;6.82;;
58637;SDS011;54976;51.510;7.522;2023-01-19T01:39:20;14.00;;;8.15;;
58637;SDS011;54976;51.510;7.522;2023-01-19T01:42:24;15.65;;;8.73;;
58637;SDS011;54976;51.510;7.522;2023-01-19T01:45:32;17.63;;;8.57;;
58637;SDS011;54976;51.510;7.522;2023-01-19T01:48:34;15.07;;;8.55;;
58637;SDS011;54976;51.510;7.522;2023-01-19T01:51:44;13.45;;;7.80;;
58637;SDS011;54976;51.510;7.522;2023-01-19T01:54:48;14.27;;;8.60;;
58637;SDS011;54976;51.510;7.522;2023-01-19T01:57:49;15.35;;;8.30;;
58637;SDS011;54976;51.510;7.522;2023-01-19T02:00:52;18.45;;;8.10;;
58637;SDS011;54976;51.510;7.522;2023-01-19T02:04:12;15.48;;;8.57;;
58637;SDS011;54976;51.510;7.522;2023-01-19T02:07:13;14.52;;;7.88;;
58637;SDS011;54976;51.510;7.522;2023-01-19T02:10:41;14.93;;;8.98;;
58637;SDS011;54976;51.510;7.522;2023-01-19T02:14:04;16.30;;;7.53;;
58637;SDS011;54976;51.510;7.522;2023-01-19T02:17:05;13.40;;;6.82;;
58637;SDS011;54976;51.510;7.522;2023-01-19T02:20:06;13.20;;;6.07;;
58637;SDS011;54976;51.510;7.522;2023-01-19T02:23:12;17.20;;;9.48;;
58637;SDS011;54976;51.510;7.522;2023-01-19T02:32:25;16.23;;;9.18;;
58637;SDS011;54976;51.510;7.522;2023-01-19T02:35:25;11.77;;;7.88;;
58637;SDS011;54976;51.510;7.522;2023-01-19T02:38:26;14.70;;;8.38;;
58637;SDS011;54976;51.510;7.522;2023-01-19T02:41:28;14.57;;;7.97;;
58637;SDS011;54976;51.510;7.522;2023-01-19T02:47:38;9.27;;;4.95;;
58637;SDS011;54976;51.510;7.522;2023-01-19T02:50:46;7.28;;;4.90;;
58637;SDS011;54976;51.510;7.522;2023-01-19T02:57:10;19.48;;;8.48;;
58637;SDS011;54976;51.510;7.522;2023-01-19T03:00:27;19.45;;;8.27;;
58637;SDS011;54976;51.510;7.522;2023-01-19T03:04:01;27.33;;;6.63;;
58637;SDS011;54976;51.510;7.522;2023-01-19T03:13:56;14.35;;;7.85;;
58637;SDS011;54976;51.510;7.522;2023-01-19T03:17:01;13.88;;;7.50;;
58637;SDS011;54976;51.510;7.522;2023-01-19T03:20:06;11.60;;;5.15;;
58637;SDS011;54976;51.510;7.522;2023-01-19T03:23:09;9.88;;;5.80;;
58637;SDS011;54976;51.510;7.522;2023-01-19T03:26:21;6.18;;;4.43;;
58637;SDS011;54976;51.510;7.522;2023-01-19T03:29:30;20.60;;;7.00;;
58637;SDS011;54976;51.510;7.522;2023-01-19T03:32:35;10.82;;;6.22;;
58637;SDS011;54976;51.510;7.522;2023-01-19T03:35:43;10.30;;;5.78;;
58637;SDS011;54976;51.510;7.522;2023-01-19T03:38:49;11.25;;;6.22;;
58637;SDS011;54976;51.510;7.522;2023-01-19T03:41:51;14.18;;;6.53;;
58637;SDS011;54976;51.510;7.522;2023-01-19T03:44:58;11.93;;;6.40;;
58637;SDS011;54976;51.510;7.522;2023-01-19T03:48:00;12.63;;;6.35;;
58637;SDS011;54976;51.510;7.522;2023-01-19T03:51:05;12.30;;;6.68;;
58637;SDS011;54976;51.510;7.522;2023-01-19T03:54:08;8.82;;;4.28;;
58637;SDS011;54976;51.510;7.522;2023-01-19T03:57:09;11.98;;;6.65;;
58637;SDS011;54976;51.510;7.522;2023-01-19T04:00:10;12.77;;;7.88;;
58637;SDS011;54976;51.510;7.522;2023-01-19T04:03:12;9.70;;;5.70;;
58637;SDS011;54976;51.510;7.522;2023-01-19T04:06:14;6.55;;;4.70;;
58637;SDS011;54976;51.510;7.522;2023-01-19T04:09:15;9.82;;;6.28;;
58637;SDS011;54976;51.510;7.522;2023-01-19T04:12:15;15.98;;;6.85;;
58637;SDS011;54976;51.510;7.522;2023-01-19T04:15:16;12.68;;;5.63;;
58637;SDS011;54976;51.510;7.522;2023-01-19T04:18:17;14.30;;;5.95;;
58637;SDS011;54976;51.510;7.522;2023-01-19T04:21:18;13.93;;;5.22;;
58637;SDS011;54976;51.510;7.522;2023-01-19T04:24:19;12.25;;;5.65;;
58637;SDS011;54976;51.510;7.522;2023-01-19T04:27:19;12.07;;;7.20;;
58637;SDS011;54976;51.510;7.522;2023-01-19T04:30:20;13.05;;;5.38;;
58637;SDS011;54976;51.510;7.522;2023-01-19T04:33:21;16.45;;;6.53;;
58637;SDS011;54976;51.510;7.522;2023-01-19T04:36:22;8.30;;;5.05;;
58637;SDS011;54976;51.510;7.522;2023-01-19T04:39:23;10.40;;;6.32;;
58637;SDS011;54976;51.510;7.522;2023-01-19T04:42:23;9.02;;;4.45;;
58637;SDS011;54976;51.510;7.522;2023-01-19T04:45:24;10.23;;;5.18;;
58637;SDS011;54976;51.510;7.522;2023-01-19T04:48:25;9.90;;;4.78;;
58637;SDS011;54976;51.510;7.522;2023-01-19T04:51:25;20.52;;;6.22;;
58637;SDS011;54976;51.510;7.522;2023-01-19T04:54:27;8.98;;;5.28;;
58637;SDS011;54976;51.510;7.522;2023-01-19T04:57:28;10.70;;;7.30;;
58637;SDS011;54976;51.510;7.522;2023-01-19T05:00:29;11.10;;;6.53;;
58637;SDS011;54976;51.510;7.522;2023-01-19T05:03:31;27.48;;;7.45;;
58637;SDS011;54976;51.510;7.522;2023-01-19T05:06:31;12.57;;;7.47;;
58637;SDS011;54976;51.510;7.522;2023-01-19T05:09:33;9.20;;;5.47;;
58637;SDS011;54976;51.510;7.522;2023-01-19T05:12:34;13.93;;;8.18;;
58637;SDS011;54976;51.510;7.522;2023-01-19T05:15:35;19.02;;;7.97;;
58637;SDS011;54976;51.510;7.522;2023-01-19T05:18:35;14.35;;;7.75;;
58637;SDS011;54976;51.510;7.522;2023-01-19T05:21:36;15.57;;;6.95;;
58637;SDS011;54976;51.510;7.522;2023-01-19T05:24:37;16.75;;;9.20;;
58637;SDS011;54976;51.510;7.522;2023-01-19T05:27:37;16.40;;;7.80;;
58637;SDS011;54976;51.510;7.522;2023-01-19T05:30:38;19.77;;;8.80;;
58637;SDS011;54976;51.510;7.522;2023-01-19T05:33:38;15.15;;;8.93;;
58637;SDS011;54976;51.510;7.522;2023-01-19T05:36:40;13.52;;;7.03;;
58637;SDS011;54976;51.510;7.522;2023-01-19T05:39:41;15.35;;;7.68;;
58637;SDS011;54976;51.510;7.522;2023-01-19T05:42:42;19.17;;;9.63;;
58637;SDS011;54976;51.510;7.522;2023-01-19T05:45:42;14.73;;;7.32;;
58637;SDS011;54976;51.510;7.522;2023-01-19T05:48:44;12.23;;;8.10;;
58637;SDS011;54976;51.510;7.522;2023-01-19T05:51:45;15.95;;;8.07;;
58637;SDS011;54976;51.510;7.522;2023-01-19T05:54:45;11.05;;;6.78;;
58637;SDS011;54976;51.510;7.522;2023-01-19T05:57:47;17.63;;;9.07;;
58637;SDS011;54976;51.510;7.522;2023-01-19T06:00:47;14.43;;;7.78;;
58637;SDS011;54976;51.510;7.522;2023-01-19T06:03:48;11.60;;;6.88;;
58637;SDS011;54976;51.510;7.522;2023-01-19T06:06:49;9.80;;;5.55;;
58637;SDS011;54976;51.510;7.522;2023-01-19T06:09:50;11.27;;;7.07;;
58637;SDS011;54976;51.510;7.522;2023-01-19T06:12:50;15.30;;;8.00;;
58637;SDS011;54976;51.510;7.522;2023-01-19T06:15:58;10.32;;;5.72;;
58637;SDS011;54976;51.510;7.522;2023-01-19T06:19:00;12.80;;;6.78;;
58637;SDS011;54976;51.510;7.522;2023-01-19T06:22:01;13.45;;;7.85;;
58637;SDS011;54976;51.510;7.522;2023-01-19T06:25:01;12.60;;;7.13;;
58637;SDS011;54976;51.510;7.522;2023-01-19T06:28:02;12.02;;;6.53;;
58637;SDS011;54976;51.510;7.522;2023-01-19T06:31:03;9.50;;;6.18;;
58637;SDS011;54976;51.510;7.522;2023-01-19T06:34:04;9.05;;;6.38;;
58637;SDS011;54976;51.510;7.522;2023-01-19T06:37:05;10.93;;;6.13;;
58637;SDS011;54976;51.510;7.522;2023-01-19T06:40:05;9.82;;;6.05;;
58637;SDS011;54976;51.510;7.522;2023-01-19T06:43:07;10.52;;;6.30;;
58637;SDS011;54976;51.510;7.522;2023-01-19T06:46:08;9.90;;;5.60;;
58637;SDS011;54976;51.510;7.522;2023-01-19T06:49:08;6.93;;;4.57;;
58637;SDS011;54976;51.510;7.522;2023-01-19T06:52:09;6.07;;;4.32;;
58637;SDS011;54976;51.510;7.522;2023-01-19T06:55:13;6.13;;;4.50;;
58637;SDS011;54976;51.510;7.522;2023-01-19T06:58:15;6.25;;;4.28;;
58637;SDS011;54976;51.510;7.522;2023-01-19T07:01:15;7.78;;;4.75;;
58637;SDS011;54976;51.510;7.522;2023-01-19T07:04:16;6.78;;;4.57;;
58637;SDS011;54976;51.510;7.522;2023-01-19T07:07:16;7.82;;;5.20;;
58637;SDS011;54976;51.510;7.522;2023-01-19T07:10:17;9.10;;;4.97;;
58637;SDS011;54976;51.510;7.522;2023-01-19T07:13:18;6.07;;;4.03;;
58637;SDS011;54976;51.510;7.522;2023-01-19T07:16:18;6.90;;;4.70;;
58637;SDS011;54976;51.510;7.522;2023-01-19T07:19:19;3.88;;;3.00;;
58637;SDS011;54976;51.510;7.522;2023-01-19T07:22:20;8.55;;;5.03;;
58637;SDS011;54976;51.510;7.522;2023-01-19T07:25:20;5.88;;;3.78;;
58637;SDS011;54976;51.510;7.522;2023-01-19T07:28:21;5.50;;;3.67;;
58637;SDS011;54976;51.510;7.522;2023-01-19T07:31:22;8.75;;;4.55;;
58637;SDS011;54976;51.510;7.522;2023-01-19T07:34:22;6.88;;;4.43;;
58637;SDS011;54976;51.510;7.522;2023-01-19T07:37:23;5.47;;;3.95;;
58637;SDS011;54976;51.510;7.522;2023-01-19T07:40:24;7.90;;;4.60;;
58637;SDS011;54976;51.510;7.522;2023-01-19T07:43:24;7.45;;;4.63;;
58637;SDS011;54976;51.510;7.522;2023-01-19T07:46:25;5.35;;;4.03;;
58637;SDS011;54976;51.510;7.522;2023-01-19T07:49:25;7.68;;;3.85;;
58637;SDS011;54976;51.510;7.522;2023-01-19T07:52:26;7.93;;;4.00;;
58637;SDS011;54976;51.510;7.522;2023-01-19T07:55:27;4.88;;;4.18;;
58637;SDS011;54976;51.510;7.522;2023-01-19T07:58:27;5.38;;;4.10;;
58637;SDS011;54976;51.510;7.522;2023-01-19T08:01:28;3.35;;;2.97;;
58637;SDS011;54976;51.510;7.522;2023-01-19T08:04:29;7.70;;;4.50;;
58637;SDS011;54976;51.510;7.522;2023-01-19T08:07:29;8.50;;;4.57;;
58637;SDS011;54976;51.510;7.522;2023-01-19T08:10:30;9.02;;;4.35;;
58637;SDS011;54976;51.510;7.522;2023-01-19T08:13:30;11.15;;;4.75;;
58637;SDS011;54976;51.510;7.522;2023-01-19T08:16:31;9.45;;;5.57;;
58637;SDS011;54976;51.510;7.522;2023-01-19T08:19:32;16.90;;;6.43;;
58637;SDS011;54976;51.510;7.522;2023-01-19T08:22:32;9.13;;;5.22;;
58637;SDS011;54976;51.510;7.522;2023-01-19T08:25:34;14.55;;;6.93;;
58637;SDS011;54976;51.510;7.522;2023-01-19T08:28:37;12.13;;;6.57;;
58637;SDS011;54976;51.510;7.522;2023-01-19T08:31:37;12.23;;;8.05;;
58637;SDS011;54976;51.510;7.522;2023-01-19T08:34:38;22.50;;;8.52;;
58637;SDS011;54976;51.510;7.522;2023-01-19T08:37:39;8.15;;;5.50;;
58637;SDS011;54976;51.510;7.522;2023-01-19T08:40:40;16.15;;;10.18;;
58637;SDS011;54976;51.510;7.522;2023-01-19T08:43:41;19.35;;;9.38;;
58637;SDS011;54976;51.510;7.522;2023-01-19T08:46:42;14.50;;;8.77;;
58637;SDS011;54976;51.510;7.522;2023-01-19T08:49:42;19.23;;;9.32;;
58637;SDS011;54976;51.510;7.522;2023-01-19T08:52:43;15.93;;;8.13;;
58637;SDS011;54976;51.510;7.522;2023-01-19T08:55:43;20.45;;;9.52;;
58637;SDS011;54976;51.510;7.522;2023-01-19T08:58:44;22.88;;;10.50;;
58637;SDS011;54976;51.510;7.522;2023-01-19T09:01:46;24.00;;;10.88;;
58637;SDS011;54976;51.510;7.522;2023-01-19T09:04:46;24.58;;;11.65;;
58637;SDS011;54976;51.510;7.522;2023-01-19T09:07:47;17.48;;;10.43;;
58637;SDS011;54976;51.510;7.522;2023-01-19T09:10:49;20.15;;;9.82;;
58637;SDS011;54976;51.510;7.522;2023-01-19T09:13:50;18.75;;;10.00;;
58637;SDS011;54976;51.510;7.522;2023-01-19T09:16:51;22.15;;;9.95;;
58637;SDS011;54976;51.510;7.522;2023-01-19T09:19:52;25.90;;;11.73;;
58637;SDS011;54976;51.510;7.522;2023-01-19T09:22:54;23.55;;;10.68;;
58637;SDS011;54976;51.510;7.522;2023-01-19T09:25:58;22.92;;;9.82;;
58637;SDS011;54976;51.510;7.522;2023-01-19T09:32:01;27.05;;;13.32;;
58637;SDS011;54976;51.510;7.522;2023-01-19T09:35:01;22.70;;;10.98;;
58637;SDS011;54976;51.510;7.522;2023-01-19T09:38:02;29.05;;;14.13;;
58637;SDS011;54976;51.510;7.522;2023-01-19T09:41:07;30.23;;;12.57;;
58637;SDS011;54976;51.510;7.522;2023-01-19T09:44:26;30.05;;;15.48;;
58637;SDS011;54976;51.510;7.522;2023-01-19T09:47:28;32.95;;;14.02;;
58637;SDS011;54976;51.510;7.522;2023-01-19T09:50:32;31.40;;;15.40;;
58637;SDS011;54976;51.510;7.522;2023-01-19T09:56:49;31.80;;;17.00;;
58637;SDS011;54976;51.510;7.522;2023-01-19T09:59:50;39.22;;;17.13;;
58637;SDS011;54976;51.510;7.522;2023-01-19T10:03:14;36.38;;;17.15;;
58637;SDS011;54976;51.510;7.522;2023-01-19T10:06:16;40.67;;;17.33;;
58637;SDS011;54976;51.510;7.522;2023-01-19T10:16:01;35.15;;;18.77;;
58637;SDS011;54976;51.510;7.522;2023-01-19T10:19:37;38.03;;;19.25;;
58637;SDS011;54976;51.510;7.522;2023-01-19T10:22:35;39.25;;;17.27;;
58637;SDS011;54976;51.510;7.522;2023-01-19T10:25:36;36.75;;;18.17;;
58637;SDS011;54976;51.510;7.522;2023-01-19T10:28:38;37.97;;;19.58;;
58637;SDS011;54976;51.510;7.522;2023-01-19T10:31:39;36.28;;;18.15;;
58637;SDS011;54976;51.510;7.522;2023-01-19T10:34:43;34.60;;;18.92;;
58637;SDS011;54976;51.510;7.522;2023-01-19T10:37:45;29.83;;;16.60;;
58637;SDS011;54976;51.510;7.522;2023-01-19T10:44:01;33.70;;;18.38;;
58637;SDS011;54976;51.510;7.522;2023-01-19T10:47:03;40.53;;;18.27;;
58637;SDS011;54976;51.510;7.522;2023-01-19T10:53:25;40.38;;;17.70;;
58637;SDS011;54976;51.510;7.522;2023-01-19T10:56:27;46.72;;;20.52;;
58637;SDS011;54976;51.510;7.522;2023-01-19T10:59:45;44.53;;;19.42;;
58637;SDS011;54976;51.510;7.522;2023-01-19T11:02:49;45.08;;;21.15;;
58637;SDS011;54976;51.510;7.522;2023-01-19T11:05:50;43.75;;;19.75;;
58637;SDS011;54976;51.510;7.522;2023-01-19T11:08:51;40.20;;;21.38;;
58637;SDS011;54976;51.510;7.522;2023-01-19T11:11:52;52.00;;;21.42;;
58637;SDS011;54976;51.510;7.522;2023-01-19T11:14:54;42.65;;;22.15;;
58637;SDS011;54976;51.510;7.522;2023-01-19T11:17:57;47.13;;;21.02;;
58637;SDS011;54976;51.510;7.522;2023-01-19T11:21:01;47.00;;;21.48;;
58637;SDS011;54976;51.510;7.522;2023-01-19T11:24:05;45.55;;;23.85;;
58637;SDS011;54976;51.510;7.522;2023-01-19T11:27:17;44.58;;;19.38;;
58637;SDS011;54976;51.510;7.522;2023-01-19T11:30:23;44.33;;;21.15;;
58637;SDS011;54976;51.510;7.522;2023-01-19T11:33:35;48.13;;;21.83;;
58637;SDS011;54976;51.510;7.522;2023-01-19T11:36:39;44.50;;;21.83;;
58637;SDS011;54976;51.510;7.522;2023-01-19T11:39:50;45.78;;;23.08;;
58637;SDS011;54976;51.510;7.522;2023-01-19T11:42:52;53.40;;;22.42;;
58637;SDS011;54976;51.510;7.522;2023-01-19T11:45:53;49.33;;;20.67;;
58637;SDS011;54976;51.510;7.522;2023-01-19T11:49:01;46.85;;;22.98;;
58637;SDS011;54976;51.510;7.522;2023-01-19T11:55:42;48.95;;;22.35;;
58637;SDS011;54976;51.510;7.522;2023-01-19T11:58:48;34.17;;;16.33;;
58637;SDS011;54976;51.510;7.522;2023-01-19T12:01:50;57.28;;;22.98;;
58637;SDS011;54976;51.510;7.522;2023-01-19T12:04:56;58.90;;;23.08;;
58637;SDS011;54976;51.510;7.522;2023-01-19T12:08:02;57.80;;;22.17;;
58637;SDS011;54976;51.510;7.522;2023-01-19T12:11:05;45.60;;;21.50;;
58637;SDS011;54976;51.510;7.522;2023-01-19T12:14:21;53.72;;;22.25;;
58637;SDS011;54976;51.510;7.522;2023-01-19T12:17:46;51.22;;;23.55;;
58637;SDS011;54976;51.510;7.522;2023-01-19T12:20:50;48.22;;;22.08;;
58637;SDS011;54976;51.510;7.522;2023-01-19T12:23:54;62.95;;;25.58;;
58637;SDS011;54976;51.510;7.522;2023-01-19T12:27:13;53.08;;;21.77;;
58637;SDS011;54976;51.510;7.522;2023-01-19T12:30:22;63.70;;;24.63;;
58637;SDS011;54976;51.510;7.522;2023-01-19T12:39:29;53.20;;;25.50;;
58637;SDS011;54976;51.510;7.522;2023-01-19T12:42:31;55.17;;;23.77;;
58637;SDS011;54976;51.510;7.522;2023-01-19T12:45:33;50.53;;;21.58;;
58637;SDS011;54976;51.510;7.522;2023-01-19T12:48:36;54.42;;;22.42;;
58637;SDS011;54976;51.510;7.522;2023-01-19T12:51:38;49.47;;;23.90;;
58637;SDS011;54976;51.510;7.522;2023-01-19T12:54:39;48.92;;;22.77;;
58637;SDS011;54976;51.510;7.522;2023-01-19T12:58:00;56.38;;;24.88;;
58637;SDS011;54976;51.510;7.522;2023-01-19T13:01:14;63.35;;;25.13;;
58637;SDS011;54976;51.510;7.522;2023-01-19T13:07:29;59.80;;;25.15;;
58637;SDS011;54976;51.510;7.522;2023-01-19T13:14:31;53.85;;;22.98;;
58637;SDS011;54976;51.510;7.522;2023-01-19T13:17:38;54.30;;;23.80;;
58637;SDS011;54976;51.510;7.522;2023-01-19T13:20:53;50.55;;;21.60;;
58637;SDS011;54976;51.510;7.522;2023-01-19T13:23:55;61.10;;;23.27;;
58637;SDS011;54976;51.510;7.522;2023-01-19T13:26:57;45.20;;;21.92;;
58637;SDS011;54976;51.510;7.522;2023-01-19T13:30:08;42.83;;;21.08;;
58637;SDS011;54976;51.510;7.522;2023-01-19T13:33:16;44.45;;;19.00;;
58637;SDS011;54976;51.510;7.522;2023-01-19T13:39:35;39.95;;;18.85;;
58637;SDS011;54976;51.510;7.522;2023-01-19T13:42:40;48.25;;;19.42;;
58637;SDS011;54976;51.510;7.522;2023-01-19T13:45:45;42.47;;;17.85;;
58637;SDS011;54976;51.510;7.522;2023-01-19T13:48:54;54.95;;;19.70;;
58637;SDS011;54976;51.510;7.522;2023-01-19T13:52:04;45.38;;;16.83;;
58637;SDS011;54976;51.510;7.522;2023-01-19T13:55:14;49.35;;;17.67;;
58637;SDS011;54976;51.510;7.522;2023-01-19T13:58:19;48.25;;;19.92;;
58637;SDS011;54976;51.510;7.522;2023-01-19T14:01:21;42.15;;;15.85;;
58637;SDS011;54976;51.510;7.522;2023-01-19T14:07:27;41.55;;;18.08;;
58637;SDS011;54976;51.510;7.522;2023-01-19T14:10:28;56.97;;;20.45;;
58637;SDS011;54976;51.510;7.522;2023-01-19T14:13:31;42.65;;;15.25;;
58637;SDS011;54976;51.510;7.522;2023-01-19T14:16:33;47.40;;;21.23;;
58637;SDS011;54976;51.510;7.522;2023-01-19T14:19:47;52.40;;;21.40;;
58637;SDS011;54976;51.510;7.522;2023-01-19T14:22:50;36.22;;;17.05;;
58637;SDS011;54976;51.510;7.522;2023-01-19T14:25:50;50.78;;;20.52;;
58637;SDS011;54976;51.510;7.522;2023-01-19T14:28:51;48.60;;;19.95;;
58637;SDS011;54976;51.510;7.522;2023-01-19T14:32:11;47.40;;;20.40;;
58637;SDS011;54976;51.510;7.522;2023-01-19T14:35:22;43.83;;;20.00;;
58637;SDS011;54976;51.510;7.522;2023-01-19T14:38:23;52.08;;;19.30;;
58637;SDS011;54976;51.510;7.522;2023-01-19T14:41:37;44.95;;;18.90;;
58637;SDS011;54976;51.510;7.522;2023-01-19T14:44:44;47.33;;;19.20;;
58637;SDS011;54976;51.510;7.522;2023-01-19T14:47:53;44.13;;;18.83;;
58637;SDS011;54976;51.510;7.522;2023-01-19T14:51:02;52.30;;;19.15;;
58637;SDS011;54976;51.510;7.522;2023-01-19T14:54:04;41.78;;;19.65;;
58637;SDS011;54976;51.510;7.522;2023-01-19T14:57:07;55.70;;;20.38;;
58637;SDS011;54976;51.510;7.522;2023-01-19T15:00:15;34.40;;;17.38;;
58637;SDS011;54976;51.510;7.522;2023-01-19T15:03:17;42.60;;;18.60;;
58637;SDS011;54976;51.510;7.522;2023-01-19T15:06:18;38.75;;;17.38;;
58637;SDS011;54976;51.510;7.522;2023-01-19T15:09:20;37.42;;;16.77;;
58637;SDS011;54976;51.510;7.522;2023-01-19T15:12:20;39.72;;;17.35;;
58637;SDS011;54976;51.510;7.522;2023-01-19T15:15:27;39.35;;;16.92;;
58637;SDS011;54976;51.510;7.522;2023-01-19T15:18:33;34.92;;;15.93;;
58637;SDS011;54976;51.510;7.522;2023-01-19T15:21:34;32.25;;;15.63;;
58637;SDS011;54976;51.510;7.522;2023-01-19T15:24:34;32.92;;;15.27;;
58637;SDS011;54976;51.510;7.522;2023-01-19T15:27:35;27.80;;;14.70;;
58637;SDS011;54976;51.510;7.522;2023-01-19T15:30:36;25.00;;;13.27;;
58637;SDS011;54976;51.510;7.522;2023-01-19T15:33:37;33.65;;;13.70;;
58637;SDS011;54976;51.510;7.522;2023-01-19T15:36:38;29.88;;;13.05;;
58637;SDS011;54976;51.510;7.522;2023-01-19T15:39:39;52.65;;;18.15;;
58637;SDS011;54976;51.510;7.522;2023-01-19T15:42:39;33.95;;;16.38;;
58637;SDS011;54976;51.510;7.522;2023-01-19T15:45:41;30.98;;;12.77;;
58637;SDS011;54976;51.510;7.522;2023-01-19T15:49:12;32.65;;;11.85;;
58637;SDS011;54976;51.510;7.522;2023-01-19T15:52:12;37.55;;;15.25;;
58637;SDS011;54976;51.510;7.522;2023-01-19T15:55:13;32.03;;;13.95;;
58637;SDS011;54976;51.510;7.522;2023-01-19T15:58:14;33.22;;;14.45;;
58637;SDS011;54976;51.510;7.522;2023-01-19T16:01:16;34.92;;;14.75;;
58637;SDS011;54976;51.510;7.522;2023-01-19T16:04:21;31.77;;;13.85;;
58637;SDS011;54976;51.510;7.522;2023-01-19T16:07:22;31.52;;;12.40;;
58637;SDS011;54976;51.510;7.522;2023-01-19T16:10:22;26.02;;;13.15;;
58637;SDS011;54976;51.510;7.522;2023-01-19T16:13:23;31.20;;;13.82;;
58637;SDS011;54976;51.510;7.522;2023-01-19T16:16:24;34.28;;;14.40;;
58637;SDS011;54976;51.510;7.522;2023-01-19T16:19:25;35.60;;;14.73;;
58637;SDS011;54976;51.510;7.522;2023-01-19T16:22:26;36.88;;;15.15;;
58637;SDS011;54976;51.510;7.522;2023-01-19T16:25:26;38.15;;;15.35;;
58637;SDS011;54976;51.510;7.522;2023-01-19T16:28:27;37.60;;;14.88;;
58637;SDS011;54976;51.510;7.522;2023-01-19T16:31:28;38.65;;;16.05;;
58637;SDS011;54976;51.510;7.522;2023-01-19T16:34:28;32.95;;;14.50;;
58637;SDS011;54976;51.510;7.522;2023-01-19T16:37:29;40.13;;;15.68;;
58637;SDS011;54976;51.510;7.522;2023-01-19T16:40:29;45.72;;;15.85;;
58637;SDS011;54976;51.510;7.522;2023-01-19T16:43:30;39.10;;;16.98;;
58637;SDS011;54976;51.510;7.522;2023-01-19T16:46:32;33.42;;;15.82;;
58637;SDS011;54976;51.510;7.522;2023-01-19T16:49:35;43.42;;;18.02;;
58637;SDS011;54976;51.510;7.522;2023-01-19T16:52:35;42.30;;;16.42;;
58637;SDS011;54976;51.510;7.522;2023-01-19T16:55:39;39.75;;;16.70;;
58637;SDS011;54976;51.510;7.522;2023-01-19T16:58:40;39.90;;;16.73;;
58637;SDS011;54976;51.510;7.522;2023-01-19T17:01:42;41.85;;;18.10;;
58637;SDS011;54976;51.510;7.522;2023-01-19T17:04:43;44.88;;;18.40;;
58637;SDS011;54976;51.510;7.522;2023-01-19T17:07:44;47.58;;;18.40;;
58637;SDS011;54976;51.510;7.522;2023-01-19T17:10:45;39.00;;;17.85;;
58637;SDS011;54976;51.510;7.522;2023-01-19T17:13:46;49.60;;;19.13;;
58637;SDS011;54976;51.510;7.522;2023-01-19T17:16:48;53.53;;;19.50;;
58637;SDS011;54976;51.510;7.522;2023-01-19T17:19:49;48.42;;;18.65;;
58637;SDS011;54976;51.510;7.522;2023-01-19T17:22:49;48.72;;;21.13;;
58637;SDS011;54976;51.510;7.522;2023-01-19T17:25:51;56.58;;;20.35;;
58637;SDS011;54976;51.510;7.522;2023-01-19T17:28:58;53.35;;;20.60;;
58637;SDS011;54976;51.510;7.522;2023-01-19T17:32:00;46.10;;;19.75;;
58637;SDS011;54976;51.510;7.522;2023-01-19T17:35:00;47.70;;;19.05;;
58637;SDS011;54976;51.510;7.522;2023-01-19T17:38:01;44.42;;;18.73;;
58637;SDS011;54976;51.510;7.522;2023-01-19T17:41:01;48.80;;;19.05;;
58637;SDS011;54976;51.510;7.522;2023-01-19T17:44:14;39.60;;;18.95;;
58637;SDS011;54976;51.510;7.522;2023-01-19T17:47:14;40.20;;;18.60;;
58637;SDS011;54976;51.510;7.522;2023-01-19T17:50:15;42.83;;;18.10;;
58637;SDS011;54976;51.510;7.522;2023-01-19T17:53:16;27.02;;;14.10;;
58637;SDS011;54976;51.510;7.522;2023-01-19T17:56:17;38.78;;;15.90;;
58637;SDS011;54976;51.510;7.522;2023-01-19T17:59:24;34.08;;;14.30;;
58637;SDS011;54976;51.510;7.522;2023-01-19T18:02:25;25.55;;;13.27;;
58637;SDS011;54976;51.510;7.522;2023-01-19T18:05:25;28.75;;;14.93;;
58637;SDS011;54976;51.510;7.522;2023-01-19T18:08:26;33.63;;;14.88;;
58637;SDS011;54976;51.510;7.522;2023-01-19T18:11:27;38.53;;;16.88;;
58637;SDS011;54976;51.510;7.522;2023-01-19T18:14:27;29.05;;;15.02;;
58637;SDS011;54976;51.510;7.522;2023-01-19T18:17:28;35.70;;;15.77;;
58637;SDS011;54976;51.510;7.522;2023-01-19T18:20:29;40.92;;;18.35;;
58637;SDS011;54976;51.510;7.522;2023-01-19T18:23:31;44.30;;;17.95;;
58637;SDS011;54976;51.510;7.522;2023-01-19T18:26:33;40.22;;;16.70;;
58637;SDS011;54976;51.510;7.522;2023-01-19T18:29:35;44.03;;;17.65;;
58637;SDS011;54976;51.510;7.522;2023-01-19T18:32:35;44.03;;;19.63;;
58637;SDS011;54976;51.510;7.522;2023-01-19T18:35:37;39.95;;;18.23;;
58637;SDS011;54976;51.510;7.522;2023-01-19T18:38:38;38.60;;;17.30;;
58637;SDS011;54976;51.510;7.522;2023-01-19T18:41:39;45.78;;;17.98;;
58637;SDS011;54976;51.510;7.522;2023-01-19T18:44:40;45.33;;;17.98;;
58637;SDS011;54976;51.510;7.522;2023-01-19T18:47:41;37.35;;;15.98;;
58637;SDS011;54976;51.510;7.522;2023-01-19T18:50:41;38.10;;;16.48;;
58637;SDS011;54976;51.510;7.522;2023-01-19T18:53:43;43.28;;;17.92;;
58637;SDS011;54976;51.510;7.522;2023-01-19T18:56:44;36.42;;;16.90;;
58637;SDS011;54976;51.510;7.522;2023-01-19T18:59:45;44.35;;;17.95;;
58637;SDS011;54976;51.510;7.522;2023-01-19T19:02:46;42.42;;;18.15;;
58637;SDS011;54976;51.510;7.522;2023-01-19T19:05:46;41.55;;;17.92;;